sensor_id;sensor_type;location;lat;lon;timestamp;pressure;altitude;pressure_sealevel;temperature;humidity
64967;BME280;51710;38.732;-121.358;2023-04-20T00:00:49;101747.59;;;18.62;34.69
64967;BME280;51710;38.732;-121.358;2023-04-20T00:03:15;101749.25;;;18.63;35.20
64967;BME280;51710;38.732;-121.358;2023-04-20T00:05:46;101751.94;;;18.63;34.48
64967;BME280;51710;38.732;-121.358;2023-04-20T00:08:17;101751.66;;;18.58;34.75
64967;BME280;51710;38.732;-121.358;2023-04-20T00:10:44;101746.25;;;18.58;34.99
64967;BME280;51710;38.732;-121.358;2023-04-20T00:13:11;101741.53;;;18.60;33.61
64967;BME280;51710;38.732;-121.358;2023-04-20T00:15:37;101737.03;;;18.52;33.82
64967;BME280;51710;38.732;-121.358;2023-04-20T00:18:03;101731.16;;;18.49;34.39
64967;BME280;51710;38.732;-121.358;2023-04-20T00:20:30;101734.53;;;18.51;34.42
64967;BME280;51710;38.732;-121.358;2023-04-20T00:22:56;101740.59;;;18.53;33.81
64967;BME280;51710;38.732;-121.358;2023-04-20T00:25:22;101728.09;;;18.52;33.63
64967;BME280;51710;38.732;-121.358;2023-04-20T00:27:49;101731.25;;;18.55;33.01
64967;BME280;51710;38.732;-121.358;2023-04-20T00:30:15;101729.78;;;18.53;33.04
64967;BME280;51710;38.732;-121.358;2023-04-20T00:32:41;101724.94;;;18.48;32.89
64967;BME280;51710;38.732;-121.358;2023-04-20T00:35:08;101727.34;;;18.43;32.97
64967;BME280;51710;38.732;-121.358;2023-04-20T00:37:34;101731.41;;;18.39;33.49
64967;BME280;51710;38.732;-121.358;2023-04-20T00:40:01;101734.63;;;18.43;32.96
64967;BME280;51710;38.732;-121.358;2023-04-20T00:42:27;101724.00;;;18.41;33.47
64967;BME280;51710;38.732;-121.358;2023-04-20T00:44:53;101724.47;;;18.45;33.25
64967;BME280;51710;38.732;-121.358;2023-04-20T00:47:19;101726.97;;;18.46;33.64
64967;BME280;51710;38.732;-121.358;2023-04-20T00:49:46;101731.38;;;18.47;33.46
64967;BME280;51710;38.732;-121.358;2023-04-20T00:52:13;101729.50;;;18.48;33.05
64967;BME280;51710;38.732;-121.358;2023-04-20T00:54:39;101733.41;;;18.45;32.73
64967;BME280;51710;38.732;-121.358;2023-04-20T00:57:06;101721.44;;;18.40;32.20
64967;BME280;51710;38.732;-121.358;2023-04-20T00:59:32;101727.88;;;18.39;32.81
64967;BME280;51710;38.732;-121.358;2023-04-20T01:01:59;101731.28;;;18.33;32.65
64967;BME280;51710;38.732;-121.358;2023-04-20T01:04:25;101730.47;;;18.32;33.53
64967;BME280;51710;38.732;-121.358;2023-04-20T01:06:52;101734.66;;;18.35;32.80
64967;BME280;51710;38.732;-121.358;2023-04-20T01:09:18;101735.22;;;18.30;32.83
64967;BME280;51710;38.732;-121.358;2023-04-20T01:11:44;101737.16;;;18.22;32.69
64967;BME280;51710;38.732;-121.358;2023-04-20T01:14:10;101738.88;;;18.15;32.99
64967;BME280;51710;38.732;-121.358;2023-04-20T01:16:36;101737.09;;;18.07;33.47
64967;BME280;51710;38.732;-121.358;2023-04-20T01:19:03;101739.59;;;18.09;33.07
64967;BME280;51710;38.732;-121.358;2023-04-20T01:21:29;101748.34;;;18.11;32.50
64967;BME280;51710;38.732;-121.358;2023-04-20T01:23:55;101735.91;;;18.10;32.48
64967;BME280;51710;38.732;-121.358;2023-04-20T01:26:23;101743.81;;;18.11;31.11
64967;BME280;51710;38.732;-121.358;2023-04-20T01:28:50;101746.34;;;18.05;32.10
64967;BME280;51710;38.732;-121.358;2023-04-20T01:31:16;101743.50;;;18.06;30.88
64967;BME280;51710;38.732;-121.358;2023-04-20T01:33:43;101744.50;;;18.05;30.93
64967;BME280;51710;38.732;-121.358;2023-04-20T01:36:09;101741.34;;;18.02;31.55
64967;BME280;51710;38.732;-121.358;2023-04-20T01:38:36;101732.59;;;17.99;31.56
64967;BME280;51710;38.732;-121.358;2023-04-20T01:41:04;101739.00;;;17.98;32.10
64967;BME280;51710;38.732;-121.358;2023-04-20T01:43:31;101736.84;;;17.94;32.50
64967;BME280;51710;38.732;-121.358;2023-04-20T01:45:59;101745.28;;;17.91;32.33
64967;BME280;51710;38.732;-121.358;2023-04-20T01:48:26;101750.75;;;17.83;32.14
64967;BME280;51710;38.732;-121.358;2023-04-20T01:50:53;101749.41;;;17.79;32.92
64967;BME280;51710;38.732;-121.358;2023-04-20T01:53:19;101749.41;;;17.79;32.79
64967;BME280;51710;38.732;-121.358;2023-04-20T01:55:46;101748.75;;;17.77;32.95
64967;BME280;51710;38.732;-121.358;2023-04-20T01:58:13;101748.94;;;17.75;32.64
64967;BME280;51710;38.732;-121.358;2023-04-20T02:00:39;101759.22;;;17.72;32.49
64967;BME280;51710;38.732;-121.358;2023-04-20T02:03:06;101758.56;;;17.70;31.74
64967;BME280;51710;38.732;-121.358;2023-04-20T02:05:32;101750.00;;;17.66;31.55
64967;BME280;51710;38.732;-121.358;2023-04-20T02:07:58;101762.19;;;17.62;32.03
64967;BME280;51710;38.732;-121.358;2023-04-20T02:10:25;101764.72;;;17.56;32.14
64967;BME280;51710;38.732;-121.358;2023-04-20T02:12:51;101770.81;;;17.50;32.49
64967;BME280;51710;38.732;-121.358;2023-04-20T02:15:17;101770.66;;;17.43;33.01
64967;BME280;51710;38.732;-121.358;2023-04-20T02:17:43;101773.19;;;17.37;33.03
64967;BME280;51710;38.732;-121.358;2023-04-20T02:20:10;101777.44;;;17.31;33.18
64967;BME280;51710;38.732;-121.358;2023-04-20T02:22:37;101772.75;;;17.25;33.24
64967;BME280;51710;38.732;-121.358;2023-04-20T02:25:04;101768.41;;;17.16;33.34
64967;BME280;51710;38.732;-121.358;2023-04-20T02:27:31;101773.47;;;17.11;33.43
64967;BME280;51710;38.732;-121.358;2023-04-20T02:29:59;101782.22;;;17.05;33.46
64967;BME280;51710;38.732;-121.358;2023-04-20T02:32:25;101780.59;;;16.96;32.99
64967;BME280;51710;38.732;-121.358;2023-04-20T02:34:52;101794.25;;;16.86;32.79
64967;BME280;51710;38.732;-121.358;2023-04-20T02:37:18;101785.19;;;16.79;33.09
64967;BME280;51710;38.732;-121.358;2023-04-20T02:39:44;101787.72;;;16.73;33.37
64967;BME280;51710;38.732;-121.358;2023-04-20T02:42:11;101792.78;;;16.68;33.34
64967;BME280;51710;38.732;-121.358;2023-04-20T02:44:37;101789.75;;;16.63;33.95
64967;BME280;51710;38.732;-121.358;2023-04-20T02:47:03;101785.38;;;16.54;34.04
64967;BME280;51710;38.732;-121.358;2023-04-20T02:49:29;101796.81;;;16.48;34.02
64967;BME280;51710;38.732;-121.358;2023-04-20T02:51:56;101793.09;;;16.41;34.21
64967;BME280;51710;38.732;-121.358;2023-04-20T02:54:22;101789.06;;;16.37;34.50
64967;BME280;51710;38.732;-121.358;2023-04-20T02:56:48;101790.41;;;16.33;34.85
64967;BME280;51710;38.732;-121.358;2023-04-20T02:59:15;101799.13;;;16.27;34.74
64967;BME280;51710;38.732;-121.358;2023-04-20T03:01:41;101800.16;;;16.18;34.72
64967;BME280;51710;38.732;-121.358;2023-04-20T03:04:07;101804.53;;;16.11;34.99
64967;BME280;51710;38.732;-121.358;2023-04-20T03:06:34;101796.25;;;16.04;34.65
64967;BME280;51710;38.732;-121.358;2023-04-20T03:09:01;101807.50;;;16.00;34.64
64967;BME280;51710;38.732;-121.358;2023-04-20T03:11:28;101807.84;;;15.97;34.55
64967;BME280;51710;38.732;-121.358;2023-04-20T03:13:55;101814.56;;;15.93;34.62
64967;BME280;51710;38.732;-121.358;2023-04-20T03:16:24;101815.88;;;15.89;34.95
64967;BME280;51710;38.732;-121.358;2023-04-20T03:18:51;101803.13;;;15.83;35.88
64967;BME280;51710;38.732;-121.358;2023-04-20T03:21:17;101807.47;;;15.75;36.14
64967;BME280;51710;38.732;-121.358;2023-04-20T03:23:43;101822.41;;;15.70;35.78
64967;BME280;51710;38.732;-121.358;2023-04-20T03:26:10;101817.00;;;15.62;36.49
64967;BME280;51710;38.732;-121.358;2023-04-20T03:28:37;101819.81;;;15.52;36.94
64967;BME280;51710;38.732;-121.358;2023-04-20T03:31:03;101823.97;;;15.47;36.80
64967;BME280;51710;38.732;-121.358;2023-04-20T03:33:31;101830.28;;;15.38;36.94
64967;BME280;51710;38.732;-121.358;2023-04-20T03:35:57;101825.06;;;15.28;37.36
64967;BME280;51710;38.732;-121.358;2023-04-20T03:38:23;101831.56;;;15.26;37.51
64967;BME280;51710;38.732;-121.358;2023-04-20T03:40:50;101825.69;;;15.22;37.09
64967;BME280;51710;38.732;-121.358;2023-04-20T03:43:16;101838.41;;;15.20;38.09
64967;BME280;51710;38.732;-121.358;2023-04-20T03:45:42;101832.38;;;15.18;38.10
64967;BME280;51710;38.732;-121.358;2023-04-20T03:48:09;101842.72;;;15.13;37.96
64967;BME280;51710;38.732;-121.358;2023-04-20T03:50:35;101843.72;;;15.04;38.73
64967;BME280;51710;38.732;-121.358;2023-04-20T03:53:01;101847.50;;;14.94;38.75
64967;BME280;51710;38.732;-121.358;2023-04-20T03:55:27;101854.66;;;14.85;38.81
64967;BME280;51710;38.732;-121.358;2023-04-20T03:57:54;101861.56;;;14.70;38.66
64967;BME280;51710;38.732;-121.358;2023-04-20T04:00:20;101869.16;;;14.57;38.49
64967;BME280;51710;38.732;-121.358;2023-04-20T04:02:46;101867.41;;;14.48;39.08
64967;BME280;51710;38.732;-121.358;2023-04-20T04:05:12;101877.91;;;14.41;39.49
64967;BME280;51710;38.732;-121.358;2023-04-20T04:07:39;101872.84;;;14.38;39.55
64967;BME280;51710;38.732;-121.358;2023-04-20T04:10:05;101877.81;;;14.33;39.56
64967;BME280;51710;38.732;-121.358;2023-04-20T04:12:32;101889.00;;;14.29;39.79
64967;BME280;51710;38.732;-121.358;2023-04-20T04:14:58;101890.19;;;14.17;40.29
64967;BME280;51710;38.732;-121.358;2023-04-20T04:17:24;101889.69;;;14.04;41.19
64967;BME280;51710;38.732;-121.358;2023-04-20T04:19:51;101897.28;;;13.91;41.07
64967;BME280;51710;38.732;-121.358;2023-04-20T04:22:17;101898.31;;;13.80;41.25
64967;BME280;51710;38.732;-121.358;2023-04-20T04:24:43;101896.38;;;13.73;41.53
64967;BME280;51710;38.732;-121.358;2023-04-20T04:27:09;101898.66;;;13.68;41.63
64967;BME280;51710;38.732;-121.358;2023-04-20T04:29:38;101909.38;;;13.68;41.68
64967;BME280;51710;38.732;-121.358;2023-04-20T04:32:06;101911.88;;;13.69;41.19
64967;BME280;51710;38.732;-121.358;2023-04-20T04:34:34;101923.06;;;13.65;42.00
64967;BME280;51710;38.732;-121.358;2023-04-20T04:37:00;101913.63;;;13.61;41.71
64967;BME280;51710;38.732;-121.358;2023-04-20T04:39:27;101914.22;;;13.54;41.96
64967;BME280;51710;38.732;-121.358;2023-04-20T04:41:53;101922.53;;;13.51;42.67
64967;BME280;51710;38.732;-121.358;2023-04-20T04:44:19;101927.19;;;13.49;42.75
64967;BME280;51710;38.732;-121.358;2023-04-20T04:46:46;101926.78;;;13.44;42.76
64967;BME280;51710;38.732;-121.358;2023-04-20T04:49:13;101935.66;;;13.35;43.42
64967;BME280;51710;38.732;-121.358;2023-04-20T04:51:39;101939.94;;;13.19;43.67
64967;BME280;51710;38.732;-121.358;2023-04-20T04:54:05;101936.31;;;13.10;43.92
64967;BME280;51710;38.732;-121.358;2023-04-20T04:56:32;101942.38;;;13.03;44.23
64967;BME280;51710;38.732;-121.358;2023-04-20T04:58:58;101938.97;;;12.91;44.90
64967;BME280;51710;38.732;-121.358;2023-04-20T05:01:24;101942.78;;;12.79;45.52
64967;BME280;51710;38.732;-121.358;2023-04-20T05:03:50;101940.53;;;12.65;45.57
64967;BME280;51710;38.732;-121.358;2023-04-20T05:06:17;101946.72;;;12.56;46.33
64967;BME280;51710;38.732;-121.358;2023-04-20T05:08:44;101939.41;;;12.48;46.19
64967;BME280;51710;38.732;-121.358;2023-04-20T05:11:11;101942.50;;;12.44;46.90
64967;BME280;51710;38.732;-121.358;2023-04-20T05:13:37;101948.13;;;12.41;46.86
64967;BME280;51710;38.732;-121.358;2023-04-20T05:16:03;101953.63;;;12.39;46.61
64967;BME280;51710;38.732;-121.358;2023-04-20T05:18:30;101957.94;;;12.31;46.94
64967;BME280;51710;38.732;-121.358;2023-04-20T05:20:56;101949.22;;;12.19;47.55
64967;BME280;51710;38.732;-121.358;2023-04-20T05:23:22;101945.25;;;12.14;47.64
64967;BME280;51710;38.732;-121.358;2023-04-20T05:25:49;101947.06;;;12.13;47.39
64967;BME280;51710;38.732;-121.358;2023-04-20T05:28:15;101952.56;;;12.12;47.56
64967;BME280;51710;38.732;-121.358;2023-04-20T05:30:42;101953.69;;;12.09;47.64
64967;BME280;51710;38.732;-121.358;2023-04-20T05:33:08;101950.31;;;12.07;47.92
64967;BME280;51710;38.732;-121.358;2023-04-20T05:35:35;101955.94;;;12.04;48.25
64967;BME280;51710;38.732;-121.358;2023-04-20T05:38:01;101953.94;;;11.97;49.21
64967;BME280;51710;38.732;-121.358;2023-04-20T05:40:31;101963.88;;;11.95;48.45
64967;BME280;51710;38.732;-121.358;2023-04-20T05:42:59;101961.38;;;11.93;48.53
64967;BME280;51710;38.732;-121.358;2023-04-20T05:45:26;101959.78;;;11.91;48.96
64967;BME280;51710;38.732;-121.358;2023-04-20T05:47:56;101971.75;;;11.87;49.02
64967;BME280;51710;38.732;-121.358;2023-04-20T05:50:23;101972.69;;;11.86;48.81
64967;BME280;51710;38.732;-121.358;2023-04-20T05:52:50;101978.31;;;11.83;48.96
64967;BME280;51710;38.732;-121.358;2023-04-20T05:55:17;101975.50;;;11.75;49.84
64967;BME280;51710;38.732;-121.358;2023-04-20T05:57:44;101983.53;;;11.64;50.35
64967;BME280;51710;38.732;-121.358;2023-04-20T06:00:14;101977.56;;;11.51;51.01
64967;BME280;51710;38.732;-121.358;2023-04-20T06:02:41;101980.78;;;11.45;50.39
64967;BME280;51710;38.732;-121.358;2023-04-20T06:05:09;101980.59;;;11.37;50.28
64967;BME280;51710;38.732;-121.358;2023-04-20T06:07:36;101990.09;;;11.29;50.78
64967;BME280;51710;38.732;-121.358;2023-04-20T06:10:03;101991.47;;;11.24;50.97
64967;BME280;51710;38.732;-121.358;2023-04-20T06:12:29;101993.66;;;11.19;50.79
64967;BME280;51710;38.732;-121.358;2023-04-20T06:14:57;101989.44;;;11.16;50.97
64967;BME280;51710;38.732;-121.358;2023-04-20T06:17:23;102002.63;;;11.18;51.03
64967;BME280;51710;38.732;-121.358;2023-04-20T06:19:50;102002.50;;;11.19;51.05
64967;BME280;51710;38.732;-121.358;2023-04-20T06:22:16;102001.53;;;11.20;50.88
64967;BME280;51710;38.732;-121.358;2023-04-20T06:24:43;102005.44;;;11.16;50.71
64967;BME280;51710;38.732;-121.358;2023-04-20T06:27:10;102004.72;;;11.14;50.62
64967;BME280;51710;38.732;-121.358;2023-04-20T06:29:36;102011.53;;;11.07;50.82
64967;BME280;51710;38.732;-121.358;2023-04-20T06:32:03;102014.50;;;10.93;51.85
64967;BME280;51710;38.732;-121.358;2023-04-20T06:34:29;102011.19;;;10.80;51.90
64967;BME280;51710;38.732;-121.358;2023-04-20T06:36:56;102020.41;;;10.65;52.56
64967;BME280;51710;38.732;-121.358;2023-04-20T06:39:22;102017.81;;;10.54;52.21
64967;BME280;51710;38.732;-121.358;2023-04-20T06:41:48;102017.34;;;10.49;52.41
64967;BME280;51710;38.732;-121.358;2023-04-20T06:44:14;102015.16;;;10.43;53.22
64967;BME280;51710;38.732;-121.358;2023-04-20T06:46:41;102015.66;;;10.37;53.97
64967;BME280;51710;38.732;-121.358;2023-04-20T06:49:07;102023.28;;;10.31;54.23
64967;BME280;51710;38.732;-121.358;2023-04-20T06:51:33;102021.13;;;10.25;54.97
64967;BME280;51710;38.732;-121.358;2023-04-20T06:53:59;102013.28;;;10.23;54.65
64967;BME280;51710;38.732;-121.358;2023-04-20T06:56:26;102015.53;;;10.28;54.28
64967;BME280;51710;38.732;-121.358;2023-04-20T06:58:52;102016.41;;;10.28;54.00
64967;BME280;51710;38.732;-121.358;2023-04-20T07:01:18;102009.38;;;10.27;54.18
64967;BME280;51710;38.732;-121.358;2023-04-20T07:03:44;102014.59;;;10.29;54.57
64967;BME280;51710;38.732;-121.358;2023-04-20T07:06:13;102015.41;;;10.29;54.63
64967;BME280;51710;38.732;-121.358;2023-04-20T07:08:41;102015.53;;;10.28;54.96
64967;BME280;51710;38.732;-121.358;2023-04-20T07:11:07;102019.19;;;10.27;55.00
64967;BME280;51710;38.732;-121.358;2023-04-20T07:13:34;102023.16;;;10.32;54.96
64967;BME280;51710;38.732;-121.358;2023-04-20T07:16:00;102024.84;;;10.33;55.15
64967;BME280;51710;38.732;-121.358;2023-04-20T07:18:26;102030.19;;;10.33;55.99
64967;BME280;51710;38.732;-121.358;2023-04-20T07:20:53;102021.47;;;10.31;55.62
64967;BME280;51710;38.732;-121.358;2023-04-20T07:23:19;102023.41;;;10.29;55.26
64967;BME280;51710;38.732;-121.358;2023-04-20T07:25:46;102019.66;;;10.32;55.79
64967;BME280;51710;38.732;-121.358;2023-04-20T07:28:12;102029.47;;;10.31;55.77
64967;BME280;51710;38.732;-121.358;2023-04-20T07:30:38;102033.44;;;10.26;55.39
64967;BME280;51710;38.732;-121.358;2023-04-20T07:33:05;102040.50;;;10.15;56.25
64967;BME280;51710;38.732;-121.358;2023-04-20T07:35:31;102037.47;;;10.09;56.53
64967;BME280;51710;38.732;-121.358;2023-04-20T07:37:58;102034.06;;;10.07;56.42
64967;BME280;51710;38.732;-121.358;2023-04-20T07:40:24;102041.78;;;9.99;56.82
64967;BME280;51710;38.732;-121.358;2023-04-20T07:42:50;102034.03;;;9.96;57.12
64967;BME280;51710;38.732;-121.358;2023-04-20T07:45:16;102032.38;;;9.95;56.71
64967;BME280;51710;38.732;-121.358;2023-04-20T07:47:43;102033.56;;;9.91;57.06
64967;BME280;51710;38.732;-121.358;2023-04-20T07:50:11;102041.31;;;9.83;57.04
64967;BME280;51710;38.732;-121.358;2023-04-20T07:52:38;102038.63;;;9.72;57.45
64967;BME280;51710;38.732;-121.358;2023-04-20T07:55:05;102044.53;;;9.64;57.43
64967;BME280;51710;38.732;-121.358;2023-04-20T07:57:33;102035.13;;;9.60;57.87
64967;BME280;51710;38.732;-121.358;2023-04-20T08:00:00;102036.69;;;9.63;57.72
64967;BME280;51710;38.732;-121.358;2023-04-20T08:02:27;102032.09;;;9.65;57.61
64967;BME280;51710;38.732;-121.358;2023-04-20T08:04:53;102035.94;;;9.61;57.83
64967;BME280;51710;38.732;-121.358;2023-04-20T08:07:19;102031.84;;;9.57;57.76
64967;BME280;51710;38.732;-121.358;2023-04-20T08:09:45;102030.13;;;9.56;58.24
64967;BME280;51710;38.732;-121.358;2023-04-20T08:12:12;102026.16;;;9.61;58.43
64967;BME280;51710;38.732;-121.358;2023-04-20T08:14:38;102028.50;;;9.66;58.06
64967;BME280;51710;38.732;-121.358;2023-04-20T08:17:05;102035.47;;;9.67;57.43
64967;BME280;51710;38.732;-121.358;2023-04-20T08:19:31;102042.97;;;9.62;57.71
64967;BME280;51710;38.732;-121.358;2023-04-20T08:21:58;102039.81;;;9.57;57.85
64967;BME280;51710;38.732;-121.358;2023-04-20T08:24:24;102041.03;;;9.53;58.34
64967;BME280;51710;38.732;-121.358;2023-04-20T08:26:50;102036.16;;;9.47;58.33
64967;BME280;51710;38.732;-121.358;2023-04-20T08:29:16;102037.13;;;9.46;58.64
64967;BME280;51710;38.732;-121.358;2023-04-20T08:31:43;102032.28;;;9.40;58.84
64967;BME280;51710;38.732;-121.358;2023-04-20T08:34:11;102038.94;;;9.34;58.92
64967;BME280;51710;38.732;-121.358;2023-04-20T08:36:37;102039.38;;;9.28;59.28
64967;BME280;51710;38.732;-121.358;2023-04-20T08:39:11;102042.41;;;9.24;59.50
64967;BME280;51710;38.732;-121.358;2023-04-20T08:41:38;102044.09;;;9.25;59.57
64967;BME280;51710;38.732;-121.358;2023-04-20T08:44:06;102037.31;;;9.21;59.75
64967;BME280;51710;38.732;-121.358;2023-04-20T08:46:33;102040.31;;;9.16;59.55
64967;BME280;51710;38.732;-121.358;2023-04-20T08:49:00;102040.75;;;9.10;60.03
64967;BME280;51710;38.732;-121.358;2023-04-20T08:51:30;102050.19;;;9.03;60.47
64967;BME280;51710;38.732;-121.358;2023-04-20T08:54:06;102051.69;;;8.94;60.51
64967;BME280;51710;38.732;-121.358;2023-04-20T08:56:39;102045.09;;;8.76;61.00
64967;BME280;51710;38.732;-121.358;2023-04-20T08:59:05;102049.09;;;8.58;61.10
64967;BME280;51710;38.732;-121.358;2023-04-20T09:01:35;102042.16;;;8.45;61.55
64967;BME280;51710;38.732;-121.358;2023-04-20T09:04:02;102037.69;;;8.45;62.25
64967;BME280;51710;38.732;-121.358;2023-04-20T09:06:28;102046.16;;;8.50;61.96
64967;BME280;51710;38.732;-121.358;2023-04-20T09:08:55;102045.50;;;8.59;62.10
64967;BME280;51710;38.732;-121.358;2023-04-20T09:11:23;102040.59;;;8.66;61.82
64967;BME280;51710;38.732;-121.358;2023-04-20T09:14:01;102045.22;;;8.75;61.90
64967;BME280;51710;38.732;-121.358;2023-04-20T09:16:29;102044.75;;;8.81;61.05
64967;BME280;51710;38.732;-121.358;2023-04-20T09:18:57;102048.50;;;8.78;61.09
64967;BME280;51710;38.732;-121.358;2023-04-20T09:21:24;102041.59;;;8.76;60.89
64967;BME280;51710;38.732;-121.358;2023-04-20T09:23:57;102045.53;;;8.70;60.88
64967;BME280;51710;38.732;-121.358;2023-04-20T09:26:24;102047.81;;;8.64;61.77
64967;BME280;51710;38.732;-121.358;2023-04-20T09:28:50;102050.56;;;8.62;61.95
64967;BME280;51710;38.732;-121.358;2023-04-20T09:31:20;102041.88;;;8.60;62.03
64967;BME280;51710;38.732;-121.358;2023-04-20T09:34:01;102034.66;;;8.62;61.75
64967;BME280;51710;38.732;-121.358;2023-04-20T09:36:42;102045.03;;;8.65;61.54
64967;BME280;51710;38.732;-121.358;2023-04-20T09:39:18;102035.50;;;8.63;61.55
64967;BME280;51710;38.732;-121.358;2023-04-20T09:41:44;102043.56;;;8.61;61.58
64967;BME280;51710;38.732;-121.358;2023-04-20T09:44:12;102043.78;;;8.58;61.81
64967;BME280;51710;38.732;-121.358;2023-04-20T09:46:39;102040.38;;;8.56;60.97
64967;BME280;51710;38.732;-121.358;2023-04-20T09:49:08;102038.09;;;8.52;61.55
64967;BME280;51710;38.732;-121.358;2023-04-20T09:51:37;102041.50;;;8.41;62.08
64967;BME280;51710;38.732;-121.358;2023-04-20T09:54:05;102035.34;;;8.41;62.57
64967;BME280;51710;38.732;-121.358;2023-04-20T09:56:32;102032.81;;;8.39;62.83
64967;BME280;51710;38.732;-121.358;2023-04-20T09:59:00;102028.59;;;8.37;63.02
64967;BME280;51710;38.732;-121.358;2023-04-20T10:01:30;102025.41;;;8.32;63.12
64967;BME280;51710;38.732;-121.358;2023-04-20T10:03:59;102029.75;;;8.33;63.39
64967;BME280;51710;38.732;-121.358;2023-04-20T10:06:29;102033.97;;;8.35;62.88
64967;BME280;51710;38.732;-121.358;2023-04-20T10:08:57;102034.44;;;8.29;62.75
64967;BME280;51710;38.732;-121.358;2023-04-20T10:11:49;102040.13;;;8.23;62.85
64967;BME280;51710;38.732;-121.358;2023-04-20T10:14:21;102031.66;;;8.18;62.30
64967;BME280;51710;38.732;-121.358;2023-04-20T10:17:07;102029.47;;;8.12;62.74
64967;BME280;51710;38.732;-121.358;2023-04-20T10:19:41;102026.31;;;8.07;62.71
64967;BME280;51710;38.732;-121.358;2023-04-20T10:22:08;102038.06;;;8.03;62.33
64967;BME280;51710;38.732;-121.358;2023-04-20T10:24:35;102028.63;;;7.99;62.83
64967;BME280;51710;38.732;-121.358;2023-04-20T10:27:21;102032.44;;;7.95;62.92
64967;BME280;51710;38.732;-121.358;2023-04-20T10:29:47;102028.84;;;7.96;62.68
64967;BME280;51710;38.732;-121.358;2023-04-20T10:32:24;102039.34;;;7.97;63.34
64967;BME280;51710;38.732;-121.358;2023-04-20T10:35:09;102037.56;;;7.98;62.85
64967;BME280;51710;38.732;-121.358;2023-04-20T10:37:47;102041.38;;;7.94;63.45
64967;BME280;51710;38.732;-121.358;2023-04-20T10:40:13;102043.06;;;7.95;63.63
64967;BME280;51710;38.732;-121.358;2023-04-20T10:42:44;102042.22;;;7.94;63.53
64967;BME280;51710;38.732;-121.358;2023-04-20T10:45:11;102048.16;;;7.98;63.85
64967;BME280;51710;38.732;-121.358;2023-04-20T10:47:37;102060.47;;;7.99;63.01
64967;BME280;51710;38.732;-121.358;2023-04-20T10:50:15;102061.94;;;8.03;63.77
64967;BME280;51710;38.732;-121.358;2023-04-20T10:52:43;102062.16;;;8.00;63.17
64967;BME280;51710;38.732;-121.358;2023-04-20T10:55:23;102057.06;;;7.97;63.83
64967;BME280;51710;38.732;-121.358;2023-04-20T10:57:50;102054.28;;;7.98;63.47
64967;BME280;51710;38.732;-121.358;2023-04-20T11:00:22;102053.66;;;7.95;63.78
64967;BME280;51710;38.732;-121.358;2023-04-20T11:02:50;102049.66;;;7.89;63.98
64967;BME280;51710;38.732;-121.358;2023-04-20T11:05:17;102059.00;;;7.82;63.79
64967;BME280;51710;38.732;-121.358;2023-04-20T11:08:02;102063.13;;;7.74;64.45
64967;BME280;51710;38.732;-121.358;2023-04-20T11:10:38;102065.16;;;7.70;64.52
64967;BME280;51710;38.732;-121.358;2023-04-20T11:13:05;102073.94;;;7.71;64.39
64967;BME280;51710;38.732;-121.358;2023-04-20T11:15:33;102077.44;;;7.71;64.50
64967;BME280;51710;38.732;-121.358;2023-04-20T11:18:09;102075.66;;;7.72;64.72
64967;BME280;51710;38.732;-121.358;2023-04-20T11:20:38;102076.81;;;7.68;65.08
64967;BME280;51710;38.732;-121.358;2023-04-20T11:23:14;102071.28;;;7.58;64.86
64967;BME280;51710;38.732;-121.358;2023-04-20T11:25:56;102058.78;;;7.48;65.67
64967;BME280;51710;38.732;-121.358;2023-04-20T11:28:22;102052.63;;;7.47;65.39
64967;BME280;51710;38.732;-121.358;2023-04-20T11:30:51;102056.84;;;7.50;65.32
64967;BME280;51710;38.732;-121.358;2023-04-20T11:33:27;102053.47;;;7.48;65.32
64967;BME280;51710;38.732;-121.358;2023-04-20T11:35:55;102053.66;;;7.45;65.58
64967;BME280;51710;38.732;-121.358;2023-04-20T11:38:31;102054.94;;;7.39;66.15
64967;BME280;51710;38.732;-121.358;2023-04-20T11:40:57;102053.13;;;7.40;66.25
64967;BME280;51710;38.732;-121.358;2023-04-20T11:43:32;102056.63;;;7.40;66.10
64967;BME280;51710;38.732;-121.358;2023-04-20T11:46:01;102062.16;;;7.37;66.05
64967;BME280;51710;38.732;-121.358;2023-04-20T11:48:30;102051.09;;;7.31;65.80
64967;BME280;51710;38.732;-121.358;2023-04-20T11:50:57;102049.81;;;7.24;66.26
64967;BME280;51710;38.732;-121.358;2023-04-20T11:53:23;102057.22;;;7.19;66.71
64967;BME280;51710;38.732;-121.358;2023-04-20T11:55:50;102057.44;;;7.16;66.75
64967;BME280;51710;38.732;-121.358;2023-04-20T11:58:16;102056.59;;;7.15;67.12
64967;BME280;51710;38.732;-121.358;2023-04-20T12:00:42;102061.06;;;7.15;66.84
64967;BME280;51710;38.732;-121.358;2023-04-20T12:03:08;102059.13;;;7.17;67.02
64967;BME280;51710;38.732;-121.358;2023-04-20T12:05:35;102056.19;;;7.21;67.43
64967;BME280;51710;38.732;-121.358;2023-04-20T12:08:01;102057.69;;;7.25;67.73
64967;BME280;51710;38.732;-121.358;2023-04-20T12:10:27;102059.16;;;7.29;67.43
64967;BME280;51710;38.732;-121.358;2023-04-20T12:12:54;102059.25;;;7.28;67.58
64967;BME280;51710;38.732;-121.358;2023-04-20T12:15:21;102054.06;;;7.26;67.29
64967;BME280;51710;38.732;-121.358;2023-04-20T12:17:47;102055.13;;;7.24;67.22
64967;BME280;51710;38.732;-121.358;2023-04-20T12:20:13;102047.50;;;7.19;67.33
64967;BME280;51710;38.732;-121.358;2023-04-20T12:22:40;102048.53;;;7.17;67.46
64967;BME280;51710;38.732;-121.358;2023-04-20T12:25:06;102050.47;;;7.15;67.13